createdAt,value
2023-05-15T06:45:19.446Z,75
2023-05-15T06:50:55.996Z,50
2023-05-15T06:56:32.603Z,42
2023-05-15T07:02:28.906Z,68
2023-05-15T07:08:09.803Z,61
2023-05-15T07:13:45.439Z,36
2023-05-15T07:19:27.550Z,58
2023-05-15T07:25:03.189Z,50
2023-05-15T07:30:39.270Z,40
2023-05-15T07:36:15.800Z,46
2023-05-15T07:41:51.558Z,48
2023-05-15T07:47:27.976Z,46
2023-05-15T07:53:06.966Z,69
2023-05-15T07:58:42.737Z,36
2023-05-15T08:04:18.662Z,36
2023-05-15T08:09:55.309Z,34
2023-05-15T08:15:32.683Z,77
2023-05-15T08:21:10.144Z,62
2023-05-15T08:26:46.511Z,44
2023-05-15T08:32:22.199Z,52
2023-05-15T08:37:58.068Z,42
2023-05-15T08:43:34.199Z,32
2023-05-15T08:49:10.413Z,50
2023-05-15T08:54:49.253Z,40
2023-05-15T09:00:26.442Z,62
2023-05-15T09:06:03.863Z,67
2023-05-15T09:11:39.219Z,26
2023-05-15T09:17:15.331Z,32
2023-05-15T09:22:55.152Z,26
2023-05-15T09:28:31.315Z,30
2023-05-15T09:34:07.555Z,63
2023-05-15T09:39:44.524Z,58
2023-05-15T09:45:45.500Z,46
2023-05-15T09:51:18.938Z,36
2023-05-15T09:56:55.607Z,48
2023-05-15T10:02:42.462Z,68
2023-05-15T10:08:18.151Z,44
2023-05-15T10:13:53.592Z,30
2023-05-15T10:19:30.989Z,38
2023-05-15T10:25:06.825Z,26
2023-05-15T10:30:42.236Z,42
2023-05-15T10:36:18.976Z,16
2023-05-15T10:41:56.274Z,32
2023-05-15T10:47:31.635Z,12
2023-05-15T10:53:08.570Z,30
2023-05-15T10:58:45.255Z,8
2023-05-15T11:04:22.135Z,32
2023-05-15T11:09:57.585Z,36
2023-05-15T11:15:34.919Z,36
2023-05-15T11:21:19.873Z,12
2023-05-15T11:26:56.514Z,36
2023-05-15T11:32:52.972Z,28
2023-05-15T11:38:29.324Z,18
2023-05-15T11:44:26.909Z,24
2023-05-15T11:50:00.181Z,18
2023-05-15T11:55:37.597Z,20
2023-05-15T12:01:12.471Z,22
2023-05-15T12:06:48.605Z,26
2023-05-15T12:12:23.938Z,20
2023-05-15T12:18:01.175Z,30
2023-05-15T12:23:37.885Z,36
2023-05-15T12:29:14.862Z,26
2023-05-15T12:34:51.116Z,30
2023-05-15T12:40:32.208Z,77
2023-05-15T12:46:29.823Z,69
2023-05-15T12:52:03.544Z,68
2023-05-15T12:57:41.574Z,34
2023-05-15T13:03:21.177Z,26
2023-05-15T13:08:56.870Z,28
2023-05-15T13:14:32.603Z,46
2023-05-15T13:20:08.067Z,36
2023-05-15T13:25:43.908Z,38
2023-05-15T13:31:19.967Z,26
2023-05-15T13:36:56.859Z,34
2023-05-15T13:42:32.585Z,30
2023-05-15T13:48:09.441Z,20
2023-05-15T13:53:54.074Z,26
2023-05-15T13:59:29.923Z,18
2023-05-15T14:05:05.038Z,20
2023-05-15T14:10:43.509Z,14
2023-05-15T14:16:18.623Z,38
2023-05-15T14:21:54.009Z,26
2023-05-15T14:27:28.938Z,30
2023-05-15T14:33:05.148Z,24
2023-05-15T14:38:40.614Z,30
2023-05-15T14:44:37.438Z,27
2023-05-15T14:50:10.543Z,16
2023-05-15T14:55:45.949Z,28
2023-05-15T15:01:21.961Z,24
2023-05-15T15:06:58.107Z,26
2023-05-15T15:12:34.614Z,30
2023-05-15T15:18:10.586Z,14
2023-05-15T15:23:46.332Z,27
2023-05-15T15:29:22.736Z,14
2023-05-15T15:34:59.049Z,25
2023-05-15T15:40:34.517Z,14
2023-05-15T15:46:14.705Z,16
2023-05-15T15:51:51.034Z,22
2023-05-15T15:57:28.564Z,26
2023-05-15T16:03:06.320Z,14
2023-05-15T16:08:51.764Z,28
2023-05-15T16:14:27.224Z,22
2023-05-15T16:20:02.541Z,10
2023-05-15T16:25:37.367Z,22
2023-05-15T16:31:13.460Z,14
2023-05-15T16:36:48.957Z,6
2023-05-15T16:42:24.703Z,14
2023-05-15T16:48:00.816Z,18
2023-05-15T16:53:36.879Z,14
2023-05-15T16:59:12.652Z,22
2023-05-15T17:04:49.372Z,20
2023-05-15T17:10:27.272Z,26
2023-05-15T17:16:15.334Z,24
2023-05-15T17:21:50.674Z,10
2023-05-15T17:27:27.815Z,30
2023-05-15T17:33:03.577Z,16
2023-05-15T17:38:38.720Z,12
2023-05-15T17:44:15.131Z,10
2023-05-15T17:49:50.761Z,22
2023-05-15T17:55:27.992Z,16
2023-05-15T18:01:04.935Z,14
2023-05-15T18:06:41.702Z,10
2023-05-15T18:12:17.376Z,10
2023-05-15T18:17:54.465Z,22
2023-05-15T18:23:34.402Z,18
2023-05-15T18:29:13.695Z,32
2023-05-15T18:34:50.620Z,37
2023-05-15T18:40:26.422Z,26
2023-05-15T18:46:02.176Z,34
2023-05-15T18:51:38.427Z,18
2023-05-15T18:57:13.896Z,22
2023-05-15T19:02:51.097Z,38
2023-05-15T19:08:27.086Z,28
2023-05-15T19:14:06.377Z,20
2023-05-15T19:19:42.535Z,14
2023-05-15T19:25:19.081Z,6
2023-05-15T19:30:54.188Z,12
2023-05-15T19:36:34.823Z,6
2023-05-15T19:42:16.219Z,38
2023-05-15T19:47:51.733Z,23
2023-05-15T19:53:27.350Z,12
2023-05-15T19:59:02.835Z,0
2023-05-15T20:04:39.525Z,14
